Time;durP1;ratioP1;P1;durP2;ratioP2;P2;SDS_P1;SDS_P2;PMS_P1;PMS_P2;Temp;Humidity;BMP_temperature;BMP_pressure;BME280_temperature;BME280_humidity;BME280_pressure;Samples;Min_cycle;Max_cycle;Signal;HPM_P1;HPM_P2
2023/12/19 00:00:07;;;;;;;116.90;59.00;;;;;;;6.11;86.06;101055.75;5138786;27;20080;-66
2023/12/19 00:02:33;;;;;;;85.28;44.03;;;;;;;6.06;86.03;101046.38;5139736;27;20042;-66
2023/12/19 00:04:58;;;;;;;50.40;26.65;;;;;;;5.91;86.38;101050.00;5140214;27;20038;-63
2023/12/19 00:07:24;;;;;;;51.40;27.38;;;;;;;5.85;87.65;101042.50;5140018;27;20034;-66
2023/12/19 00:09:49;;;;;;;37.63;20.73;;;;;;;5.75;89.34;101030.91;5140253;27;20043;-66
2023/12/19 00:12:15;;;;;;;38.90;21.88;;;;;;;5.71;89.75;101034.66;5139775;27;20039;-66
2023/12/19 00:14:40;;;;;;;32.95;19.25;;;;;;;5.87;88.10;101034.50;5140010;27;20445;-64
2023/12/19 00:17:06;;;;;;;30.15;15.73;;;;;;;5.75;87.35;101030.91;5139628;27;20053;-64
2023/12/19 00:19:31;;;;;;;35.58;19.27;;;;;;;5.70;87.75;101028.56;5139865;27;20361;-66
2023/12/19 00:21:57;;;;;;;32.17;20.25;;;;;;;5.68;89.46;101034.88;5139815;27;20057;-66
2023/12/19 00:24:22;;;;;;;30.25;19.05;;;;;;;5.59;88.70;101043.34;5139996;27;20072;-66
2023/12/19 00:26:48;;;;;;;24.50;13.88;;;;;;;5.36;86.44;101044.81;5140166;27;20051;-64
2023/12/19 00:29:13;;;;;;;17.77;10.20;;;;;;;5.10;87.84;101043.78;5139937;27;20051;-64
2023/12/19 00:31:38;;;;;;;16.95;10.43;;;;;;;5.21;89.61;101053.66;5140652;27;20027;-66
2023/12/19 00:34:04;;;;;;;18.45;10.73;;;;;;;5.13;89.52;101049.69;5141111;27;20035;-63
2023/12/19 00:36:29;;;;;;;16.83;9.18;;;;;;;5.18;90.52;101048.56;5141024;27;20110;-66
2023/12/19 00:38:55;;;;;;;14.45;8.75;;;;;;;5.25;91.60;101053.38;5139996;27;20035;-64
2023/12/19 00:41:20;;;;;;;13.75;8.55;;;;;;;5.31;91.46;101047.72;5139865;27;20051;-64
2023/12/19 00:43:46;;;;;;;13.27;7.32;;;;;;;5.34;89.70;101059.81;5139489;27;20107;-64
2023/12/19 00:46:12;;;;;;;12.93;7.70;;;;;;;5.23;88.68;101059.66;5139377;27;20058;-64
2023/12/19 00:48:37;;;;;;;11.02;6.88;;;;;;;5.03;89.65;101050.34;5139410;27;20035;-66
2023/12/19 00:51:08;;;;;;;11.68;7.65;;;;;;;5.01;90.14;101054.84;5139694;27;20031;-66
2023/12/19 00:53:33;;;;;;;15.88;9.20;;;;;;;4.84;91.86;101047.16;5139240;27;20038;-64
2023/12/19 00:55:59;;;;;;;14.25;9.52;;;;;;;5.06;91.26;101048.38;5139673;27;20047;-64
2023/12/19 00:58:24;;;;;;;15.43;8.27;;;;;;;5.19;90.31;101047.63;5139362;27;20034;-64
2023/12/19 01:00:50;;;;;;;15.65;8.65;;;;;;;5.25;90.22;101036.75;5138356;27;20050;-66
2023/12/19 01:03:15;;;;;;;16.60;8.25;;;;;;;5.28;89.29;101041.81;5138270;27;20088;-64
2023/12/19 01:05:40;;;;;;;15.68;8.57;;;;;;;5.21;87.29;101038.75;5138193;27;20054;-66
2023/12/19 01:08:06;;;;;;;15.50;9.18;;;;;;;5.17;87.46;101044.25;5137369;27;20031;-64
2023/12/19 01:10:31;;;;;;;14.60;7.88;;;;;;;5.12;89.39;101026.16;5138824;27;20041;-66
2023/12/19 01:12:57;;;;;;;13.25;7.90;;;;;;;5.08;90.19;101040.41;5138961;27;20039;-64
2023/12/19 01:15:24;;;;;;;13.45;8.18;;;;;;;5.13;90.70;101038.34;5138781;27;20275;-66
2023/12/19 01:17:49;;;;;;;14.88;8.88;;;;;;;5.27;89.73;101030.47;5138814;27;20039;-65
2023/12/19 01:20:15;;;;;;;17.05;9.15;;;;;;;5.36;88.51;101022.00;5138852;27;20127;-66
2023/12/19 01:22:40;;;;;;;12.85;8.85;;;;;;;5.41;87.83;101022.56;5138480;27;20038;-63
2023/12/19 01:25:06;;;;;;;16.30;8.25;;;;;;;5.49;87.06;101023.84;5138709;27;20039;-64
2023/12/19 01:27:32;;;;;;;16.30;10.38;;;;;;;5.55;87.64;101018.19;5138674;27;20035;-66
2023/12/19 01:29:57;;;;;;;14.52;8.20;;;;;;;5.51;86.53;101020.19;5138615;27;20089;-65
2023/12/19 01:32:23;;;;;;;17.98;10.48;;;;;;;5.49;85.86;101022.06;5139160;27;20022;-66
2023/12/19 01:34:48;;;;;;;30.95;16.10;;;;;;;5.26;86.45;101028.78;5139118;27;20321;-64
2023/12/19 01:37:14;;;;;;;43.28;24.67;;;;;;;5.28;86.65;101008.53;5139102;27;20023;-66
2023/12/19 01:39:39;;;;;;;44.42;26.65;;;;;;;5.27;86.85;101014.72;5138956;27;20034;-65
2023/12/19 01:42:05;;;;;;;41.55;24.05;;;;;;;5.26;87.14;101002.53;5138488;27;20251;-64
2023/12/19 01:44:30;;;;;;;30.15;19.02;;;;;;;5.24;87.89;101006.19;5138597;27;20397;-66
2023/12/19 01:46:55;;;;;;;35.80;21.40;;;;;;;5.34;87.29;100995.00;5138691;27;20055;-64
2023/12/19 01:49:22;;;;;;;33.30;19.15;;;;;;;5.40;87.20;100991.97;5138827;27;20042;-64
2023/12/19 01:51:48;;;;;;;28.10;18.08;;;;;;;5.42;86.43;100984.00;5138780;27;20054;-66
2023/12/19 01:54:14;;;;;;;27.92;18.05;;;;;;;5.43;86.85;100983.06;5139145;27;20051;-64
2023/12/19 01:56:40;;;;;;;29.92;17.65;;;;;;;5.50;86.27;100983.50;5139168;27;20038;-64
2023/12/19 01:59:08;;;;;;;27.95;17.83;;;;;;;5.53;85.86;100981.53;5138364;27;20224;-66
2023/12/19 02:01:37;;;;;;;30.02;17.63;;;;;;;5.49;85.03;100998.44;5138343;27;20051;-65
2023/12/19 02:04:03;;;;;;;26.02;17.38;;;;;;;5.49;84.65;100989.69;5138826;27;20035;-66
2023/12/19 02:06:33;;;;;;;32.75;18.48;;;;;;;5.23;83.48;100996.63;5140055;27;20039;-64
2023/12/19 02:08:58;;;;;;;29.60;17.05;;;;;;;5.13;82.90;100998.97;5139412;27;20062;-66
2023/12/19 02:11:24;;;;;;;28.70;17.33;;;;;;;5.14;83.09;100996.25;5139547;27;20047;-64
2023/12/19 02:13:49;;;;;;;25.83;16.13;;;;;;;5.10;85.05;100994.75;5139517;27;20049;-66
2023/12/19 02:16:15;;;;;;;25.42;15.30;;;;;;;5.10;85.88;100997.38;5139167;27;20328;-65
2023/12/19 02:18:40;;;;;;;23.15;12.90;;;;;;;5.13;87.13;101007.69;5138768;27;20042;-64
2023/12/19 02:21:06;;;;;;;22.95;13.48;;;;;;;5.19;87.99;100995.94;5142420;27;20039;-66
2023/12/19 02:23:31;;;;;;;19.88;12.40;;;;;;;5.22;88.10;100997.56;5142587;27;20027;-66
2023/12/19 02:25:57;;;;;;;22.35;15.27;;;;;;;5.19;87.23;100992.47;5142602;27;20095;-64
2023/12/19 02:28:23;;;;;;;21.02;13.23;;;;;;;5.16;87.96;100992.66;5141928;27;20033;-66
2023/12/19 02:30:48;;;;;;;24.70;14.25;;;;;;;5.22;87.73;100998.41;5142032;27;20047;-66
2023/12/19 02:33:14;;;;;;;21.92;12.98;;;;;;;5.31;87.13;100994.34;5142179;27;20062;-64
2023/12/19 02:35:39;;;;;;;20.88;12.45;;;;;;;5.25;87.40;100995.59;5142754;27;20035;-66
2023/12/19 02:38:05;;;;;;;21.10;12.13;;;;;;;5.20;87.60;100995.03;5142122;27;20027;-63
2023/12/19 02:40:30;;;;;;;19.88;11.27;;;;;;;5.17;87.93;100984.69;5142058;27;20053;-66
2023/12/19 02:42:56;;;;;;;20.33;12.75;;;;;;;5.18;87.01;100994.25;5141790;27;20035;-64
2023/12/19 02:45:21;;;;;;;19.88;11.82;;;;;;;5.03;85.76;100990.81;5141877;27;20218;-66
2023/12/19 02:47:46;;;;;;;22.98;12.93;;;;;;;4.99;83.36;101002.44;5141773;27;20102;-64
2023/12/19 02:50:12;;;;;;;23.77;14.05;;;;;;;4.68;85.51;100995.63;5141566;27;20046;-63
2023/12/19 02:52:38;;;;;;;27.88;14.73;;;;;;;4.61;88.42;100988.22;5141531;27;20107;-64
2023/12/19 02:55:04;;;;;;;24.83;13.25;;;;;;;4.26;91.01;100977.25;5142157;27;20043;-64
2023/12/19 02:57:29;;;;;;;26.88;19.10;;;;;;;4.43;91.58;100977.91;5141857;27;20034;-64
2023/12/19 02:59:55;;;;;;;24.15;15.88;;;;;;;4.46;90.88;100974.28;5141810;27;20391;-65
2023/12/19 03:02:20;;;;;;;23.73;15.20;;;;;;;4.59;90.79;100969.97;5141409;27;20359;-66
2023/12/19 03:04:46;;;;;;;27.33;15.88;;;;;;;4.67;89.70;100979.97;5141901;27;20302;-64
2023/12/19 03:07:11;;;;;;;24.48;17.83;;;;;;;4.72;89.61;100986.63;5141322;27;20237;-63
2023/12/19 03:09:37;;;;;;;24.55;15.20;;;;;;;4.76;88.92;100980.25;5141290;27;20023;-64
2023/12/19 03:12:05;;;;;;;23.38;15.18;;;;;;;4.48;88.12;100983.72;5142091;27;20027;-64
2023/12/19 03:14:34;;;;;;;24.73;14.98;;;;;;;4.51;88.33;100984.47;5141588;27;20038;-66
2023/12/19 03:17:01;;;;;;;23.75;14.55;;;;;;;4.64;87.42;100988.03;5141638;27;20027;-66
2023/12/19 03:19:27;;;;;;;75.38;29.88;;;;;;;4.65;87.70;100993.19;5141437;27;20102;-66
2023/12/19 03:21:53;;;;;;;35.38;16.15;;;;;;;4.54;89.72;100984.28;5141635;27;20031;-66
2023/12/19 03:24:19;;;;;;;51.15;20.88;;;;;;;4.57;88.08;100977.09;5141337;27;20114;-64
2023/12/19 03:26:44;;;;;;;67.70;25.58;;;;;;;4.61;88.20;100982.97;5140635;27;20066;-64
2023/12/19 03:29:10;;;;;;;62.00;25.48;;;;;;;4.66;88.14;100986.16;5140820;27;20031;-63
2023/12/19 03:31:36;;;;;;;46.40;20.58;;;;;;;4.72;87.71;100980.53;5140016;27;20039;-63
2023/12/19 03:34:02;;;;;;;33.53;16.27;;;;;;;4.75;88.17;100993.47;5140608;27;20070;-63
2023/12/19 03:36:28;;;;;;;31.17;17.13;;;;;;;4.87;87.78;100974.34;5140743;27;20043;-64
2023/12/19 03:38:54;;;;;;;28.58;15.35;;;;;;;4.88;86.75;100969.94;5140760;27;20035;-64
2023/12/19 03:41:19;;;;;;;27.85;15.90;;;;;;;4.98;87.12;100973.66;5142130;27;20096;-66
2023/12/19 03:43:45;;;;;;;27.27;16.13;;;;;;;4.99;86.90;100968.31;5141006;27;20043;-66
2023/12/19 03:46:10;;;;;;;29.85;16.60;;;;;;;5.03;86.57;100961.09;5140427;27;20047;-64
2023/12/19 03:48:36;;;;;;;25.13;14.77;;;;;;;5.06;86.79;100953.03;5140513;27;20373;-64
2023/12/19 03:51:01;;;;;;;20.90;12.38;;;;;;;4.75;88.65;100949.72;5140871;27;20212;-66
2023/12/19 03:53:27;;;;;;;19.35;11.90;;;;;;;4.67;90.36;100948.50;5141283;27;20039;-64
2023/12/19 03:55:56;;;;;;;34.78;19.20;;;;;;;4.71;90.54;100953.47;5141675;27;20102;-64
2023/12/19 03:58:22;;;;;;;20.70;14.68;;;;;;;4.67;90.93;100953.75;5141620;27;20046;-64
2023/12/19 04:00:48;;;;;;;18.70;12.73;;;;;;;4.77;90.38;100958.31;5141103;27;20353;-66
2023/12/19 04:03:14;;;;;;;21.55;12.65;;;;;;;4.78;89.41;100953.94;5140675;27;20035;-66
2023/12/19 04:05:39;;;;;;;16.60;11.52;;;;;;;4.92;89.16;100963.56;5140447;27;20047;-66
2023/12/19 04:08:05;;;;;;;24.05;15.80;;;;;;;4.95;88.57;100955.50;5140188;27;20051;-66
2023/12/19 04:10:30;;;;;;;25.75;16.17;;;;;;;4.96;87.70;100962.44;5141048;27;20050;-65
2023/12/19 04:12:55;;;;;;;28.63;14.82;;;;;;;4.52;88.00;100952.06;5140959;27;20034;-64
2023/12/19 04:15:22;;;;;;;24.17;13.10;;;;;;;4.61;88.36;100957.59;5140816;27;20305;-66
2023/12/19 04:17:47;;;;;;;23.13;14.10;;;;;;;4.58;88.46;100946.44;5140889;27;20357;-65
2023/12/19 04:20:13;;;;;;;20.20;13.05;;;;;;;4.67;88.52;100959.00;5141090;27;20068;-65
2023/12/19 04:22:38;;;;;;;20.05;13.70;;;;;;;4.78;88.71;100959.16;5140656;27;20035;-66
2023/12/19 04:25:05;;;;;;;19.38;11.88;;;;;;;4.59;87.78;100967.34;5141144;27;20372;-66
2023/12/19 04:27:30;;;;;;;15.82;10.57;;;;;;;4.72;85.33;100962.19;5140302;27;20038;-63
2023/12/19 04:29:56;;;;;;;17.27;9.95;;;;;;;4.59;84.30;100967.34;5140405;27;20045;-64
2023/12/19 04:32:22;;;;;;;17.80;10.77;;;;;;;4.53;85.72;100962.47;5139926;27;20064;-64
2023/12/19 04:34:48;;;;;;;19.98;10.65;;;;;;;4.57;85.72;100965.75;5140093;27;20311;-66
2023/12/19 04:37:13;;;;;;;22.35;13.13;;;;;;;4.57;86.25;100961.34;5140338;27;20273;-66
2023/12/19 04:39:38;;;;;;;25.75;13.43;;;;;;;4.66;86.58;100967.81;5140634;27;20055;-64
2023/12/19 04:42:07;;;;;;;25.13;15.55;;;;;;;4.65;86.28;100968.75;5139860;27;20023;-64
2023/12/19 04:44:36;;;;;;;27.80;15.95;;;;;;;4.36;87.43;100958.25;5140051;27;20038;-66
2023/12/19 04:47:02;;;;;;;22.02;13.90;;;;;;;4.40;88.35;100956.28;5139364;27;20352;-66
2023/12/19 04:49:27;;;;;;;21.13;13.18;;;;;;;4.46;86.71;100961.16;5139723;27;20023;-66
2023/12/19 04:51:53;;;;;;;20.33;12.75;;;;;;;4.33;87.89;100966.31;5140063;27;20080;-66
2023/12/19 04:54:18;;;;;;;24.45;15.75;;;;;;;4.29;88.60;100971.81;5139416;27;20061;-66
2023/12/19 04:56:44;;;;;;;52.03;27.50;;;;;;;4.35;88.93;100963.59;5139576;27;20345;-65
2023/12/19 04:59:09;;;;;;;49.60;26.15;;;;;;;4.37;87.96;100966.97;5139146;27;20035;-63
2023/12/19 05:01:36;;;;;;;36.50;19.38;;;;;;;4.33;88.94;100968.91;5139503;27;20042;-64
2023/12/19 05:04:01;;;;;;;30.40;18.05;;;;;;;4.41;88.08;100974.53;5139221;27;20219;-64
2023/12/19 05:06:27;;;;;;;32.08;19.40;;;;;;;4.31;88.20;100964.72;5138434;27;20333;-66
2023/12/19 05:08:52;;;;;;;24.90;14.75;;;;;;;3.94;87.43;100977.34;5138204;27;20031;-66
2023/12/19 05:11:17;;;;;;;22.02;14.60;;;;;;;4.07;88.37;100977.47;5137982;27;20039;-66
2023/12/19 05:13:43;;;;;;;21.40;14.48;;;;;;;4.14;88.21;100978.78;5138017;27;20039;-64
2023/12/19 05:16:13;;;;;;;24.77;15.20;;;;;;;4.12;88.80;100981.50;5138066;27;20037;-66
2023/12/19 05:18:41;;;;;;;24.70;14.38;;;;;;;4.22;88.62;100981.00;5138368;27;20031;-64
2023/12/19 05:21:10;;;;;;;28.77;15.88;;;;;;;4.37;88.42;100983.53;5138017;27;20039;-63
2023/12/19 05:23:36;;;;;;;28.10;16.30;;;;;;;4.43;87.67;100984.94;5138766;27;20370;-64
2023/12/19 05:26:05;;;;;;;27.70;15.98;;;;;;;4.48;86.59;100986.34;5138620;27;20084;-66
2023/12/19 05:28:31;;;;;;;25.55;16.83;;;;;;;4.47;86.51;100984.66;5138394;27;20214;-66
2023/12/19 05:30:57;;;;;;;29.27;17.73;;;;;;;4.48;87.03;100983.72;5138261;27;20060;-66
2023/12/19 05:33:24;;;;;;;25.17;16.25;;;;;;;4.54;87.02;100969.41;5138213;27;20063;-66
2023/12/19 05:35:50;;;;;;;23.25;15.85;;;;;;;4.62;86.07;100980.28;5138237;27;20112;-64
2023/12/19 05:38:16;;;;;;;23.83;16.30;;;;;;;4.61;85.72;100973.34;5137797;27;20035;-66
2023/12/19 05:40:42;;;;;;;25.83;17.08;;;;;;;4.67;86.21;100972.13;5138165;27;20066;-66
2023/12/19 05:43:08;;;;;;;25.15;15.38;;;;;;;4.74;86.24;100973.41;5138248;27;20039;-64
2023/12/19 05:45:34;;;;;;;24.45;15.23;;;;;;;4.69;87.14;100975.50;5138192;27;20047;-66
2023/12/19 05:47:59;;;;;;;25.00;15.43;;;;;;;4.77;86.47;100981.09;5138550;27;20039;-63
2023/12/19 05:50:25;;;;;;;27.65;14.77;;;;;;;4.84;87.39;100977.16;5138710;27;20053;-63
2023/12/19 05:52:50;;;;;;;25.88;14.93;;;;;;;4.93;86.69;100981.84;5138753;27;20035;-63
2023/12/19 05:55:16;;;;;;;25.75;15.88;;;;;;;4.67;83.52;100995.72;5138549;27;20047;-64
2023/12/19 05:57:41;;;;;;;24.88;14.57;;;;;;;4.62;80.75;100987.28;5138838;27;20042;-64
2023/12/19 06:00:07;;;;;;;23.30;15.48;;;;;;;4.52;81.53;100980.91;5139443;27;20039;-63
2023/12/19 06:02:33;;;;;;;26.58;16.75;;;;;;;4.43;84.36;100982.31;5139215;27;20069;-63
2023/12/19 06:05:00;;;;;;;25.85;16.50;;;;;;;4.51;82.93;100993.19;5139208;27;20023;-66
2023/12/19 06:07:25;;;;;;;24.83;15.70;;;;;;;4.50;84.12;100996.75;5138799;27;20064;-66
2023/12/19 06:09:52;;;;;;;21.17;14.10;;;;;;;4.53;85.11;100993.94;5138619;27;20043;-63
2023/12/19 06:12:17;;;;;;;24.35;14.77;;;;;;;4.60;85.18;100995.25;5138852;27;20242;-64
2023/12/19 06:14:43;;;;;;;21.65;15.20;;;;;;;4.71;85.11;100992.81;5139562;27;20401;-63
2023/12/19 06:17:09;;;;;;;23.05;14.10;;;;;;;4.81;85.14;100985.22;5138766;27;20294;-64
2023/12/19 06:19:34;;;;;;;22.50;14.75;;;;;;;4.82;84.81;100985.13;5138881;27;20037;-66
2023/12/19 06:22:00;;;;;;;23.02;14.88;;;;;;;4.88;85.19;100975.19;5138697;27;20038;-66
2023/12/19 06:24:25;;;;;;;25.40;17.27;;;;;;;4.97;85.58;100990.34;5139313;27;20063;-63
2023/12/19 06:26:51;;;;;;;32.75;20.50;;;;;;;5.02;85.98;100981.25;5138712;27;20043;-64
2023/12/19 06:29:16;;;;;;;29.25;18.75;;;;;;;5.07;85.79;100988.84;5138099;27;20295;-66
2023/12/19 06:31:46;;;;;;;27.67;19.60;;;;;;;5.21;86.97;100988.00;5138063;27;20031;-66
2023/12/19 06:34:12;;;;;;;31.10;20.25;;;;;;;5.34;86.98;100991.53;5137993;27;20056;-64
2023/12/19 06:36:38;;;;;;;26.05;17.35;;;;;;;5.43;87.40;100980.44;5137759;27;20217;-66
2023/12/19 06:39:04;;;;;;;27.27;15.98;;;;;;;5.53;87.44;100981.53;5138235;27;20356;-64
2023/12/19 06:41:29;;;;;;;26.35;17.75;;;;;;;5.59;87.66;100982.91;5138414;27;20032;-66
2023/12/19 06:43:56;;;;;;;24.55;17.02;;;;;;;5.67;87.81;100983.25;5139046;27;20042;-63
2023/12/19 06:46:21;;;;;;;23.50;15.73;;;;;;;5.76;87.71;100985.28;5138895;27;20072;-64
2023/12/19 06:48:47;;;;;;;28.63;15.85;;;;;;;5.84;86.39;100985.59;5139000;27;20046;-64
2023/12/19 06:51:23;;;;;;;27.30;17.15;;;;;;;5.90;87.62;100995.75;5138922;27;20039;-66
2023/12/19 06:53:51;;;;;;;24.55;17.85;;;;;;;5.99;88.49;100991.66;5138861;27;20086;-66
2023/12/19 06:56:16;;;;;;;24.38;15.98;;;;;;;5.93;88.37;100992.91;5138562;27;20074;-64
2023/12/19 06:58:42;;;;;;;31.55;18.67;;;;;;;5.99;88.60;100986.41;5138705;27;20221;-66
2023/12/19 07:01:07;;;;;;;35.47;20.40;;;;;;;5.88;87.60;101000.22;5138569;27;20049;-63
2023/12/19 07:03:33;;;;;;;24.92;16.65;;;;;;;6.00;87.74;100993.34;5138288;27;20032;-66
2023/12/19 07:05:58;;;;;;;19.33;12.07;;;;;;;6.04;88.03;100993.03;5138659;27;20328;-64
2023/12/19 07:08:23;;;;;;;21.83;12.35;;;;;;;6.08;87.18;101001.56;5141382;27;20027;-64
2023/12/19 07:10:52;;;;;;;21.20;12.90;;;;;;;6.25;86.90;100998.69;5141763;27;20035;-67
2023/12/19 07:13:17;;;;;;;16.27;10.45;;;;;;;6.44;85.27;101006.16;5141510;27;20080;-66
2023/12/19 07:15:43;;;;;;;14.20;9.95;;;;;;;6.56;85.30;101012.38;5142004;27;20043;-64
2023/12/19 07:18:08;;;;;;;15.68;8.95;;;;;;;6.51;84.55;101006.59;5142260;27;20035;-66
2023/12/19 07:20:33;;;;;;;11.23;6.72;;;;;;;6.58;84.70;101005.22;5141568;27;20027;-63
2023/12/19 07:22:59;;;;;;;11.70;7.40;;;;;;;6.66;83.81;100998.47;5140537;27;20221;-66
2023/12/19 07:25:26;;;;;;;10.73;7.15;;;;;;;6.67;85.00;100991.41;5140627;27;20047;-64
2023/12/19 07:27:51;;;;;;;19.00;10.80;;;;;;;6.63;87.37;100989.94;5141394;27;20225;-64
2023/12/19 07:30:17;;;;;;;16.98;10.88;;;;;;;6.77;89.71;100981.09;5140807;27;20080;-63
2023/12/19 07:32:42;;;;;;;16.05;10.23;;;;;;;6.87;89.44;100985.59;5141148;27;20039;-63
2023/12/19 07:35:09;;;;;;;14.05;8.73;;;;;;;7.00;88.74;100978.50;5141405;27;20035;-63
2023/12/19 07:37:36;;;;;;;25.83;13.15;;;;;;;7.14;88.59;100982.78;5141170;27;20206;-64
2023/12/19 07:40:02;;;;;;;14.15;9.15;;;;;;;7.17;88.20;100976.47;5141000;27;20242;-65
2023/12/19 07:42:27;;;;;;;10.43;7.80;;;;;;;7.10;88.20;100983.13;5140494;27;20031;-64
2023/12/19 07:44:53;;;;;;;14.57;8.60;;;;;;;6.98;88.28;100975.16;5141145;27;20329;-66
2023/12/19 07:47:18;;;;;;;14.70;9.50;;;;;;;7.01;88.48;100969.66;5138788;27;20043;-64
2023/12/19 07:49:43;;;;;;;18.27;9.23;;;;;;;7.27;87.26;100966.94;5140504;27;20051;-64
2023/12/19 07:52:09;;;;;;;13.23;8.20;;;;;;;7.47;85.57;100963.72;5140170;27;20034;-66
2023/12/19 07:54:34;;;;;;;13.43;8.38;;;;;;;7.68;84.32;100962.16;5140763;27;20275;-65
2023/12/19 07:56:59;;;;;;;12.52;8.38;;;;;;;7.69;83.38;100960.34;5158999;27;20313;-63
2023/12/19 07:59:25;;;;;;;12.75;8.48;;;;;;;7.79;83.70;100953.44;5161322;27;20035;-64
2023/12/19 08:01:50;;;;;;;11.18;8.02;;;;;;;7.98;82.97;100966.09;5161047;27;20046;-66
2023/12/19 08:04:17;;;;;;;13.50;8.07;;;;;;;8.11;82.89;100963.34;5161165;27;20034;-65
2023/12/19 08:06:42;;;;;;;13.40;9.13;;;;;;;8.24;81.98;100962.31;5161246;27;20045;-66
2023/12/19 08:09:11;;;;;;;13.77;8.45;;;;;;;8.34;81.37;100970.41;5160818;27;20042;-66
2023/12/19 08:11:37;;;;;;;12.93;8.35;;;;;;;8.56;80.92;100966.97;5160943;27;20388;-64
2023/12/19 08:14:02;;;;;;;13.57;8.70;;;;;;;8.73;79.46;100973.56;5160796;27;20473;-66
2023/12/19 08:16:28;;;;;;;15.50;9.77;;;;;;;8.88;79.04;100972.34;5160850;27;20049;-65
2023/12/19 08:18:53;;;;;;;17.75;9.57;;;;;;;8.91;78.93;100964.19;5160535;27;20031;-66
2023/12/19 08:21:19;;;;;;;17.08;9.48;;;;;;;8.99;78.97;100953.00;5160840;27;20075;-66
2023/12/19 08:23:45;;;;;;;20.40;13.52;;;;;;;9.08;77.91;100958.41;5160878;27;20333;-66
2023/12/19 08:26:10;;;;;;;20.17;11.82;;;;;;;9.09;78.09;100970.66;5159302;27;20040;-66
2023/12/19 08:28:36;;;;;;;17.27;10.40;;;;;;;9.10;77.06;100963.56;5159816;27;20019;-64
2023/12/19 08:31:03;;;;;;;18.52;10.63;;;;;;;9.15;77.43;100954.31;5160260;27;20062;-65
2023/12/19 08:33:29;;;;;;;16.58;11.10;;;;;;;9.21;77.70;100939.75;5160414;27;20042;-66
2023/12/19 08:35:54;;;;;;;20.48;10.57;;;;;;;9.17;78.73;100947.09;5159887;27;20042;-64
2023/12/19 08:38:20;;;;;;;16.00;10.40;;;;;;;8.98;79.82;100938.97;5159337;27;20079;-64
2023/12/19 08:40:45;;;;;;;17.13;10.75;;;;;;;8.88;80.86;100932.72;5159461;27;20034;-64
2023/12/19 08:43:11;;;;;;;14.52;9.88;;;;;;;8.88;82.43;100930.94;5159269;27;20031;-64
2023/12/19 08:45:36;;;;;;;18.63;10.95;;;;;;;8.84;82.32;100928.66;5159184;27;20344;-64
2023/12/19 08:48:04;;;;;;;17.98;10.82;;;;;;;8.89;82.58;100926.50;5159106;27;20416;-64
2023/12/19 08:50:30;;;;;;;17.73;11.30;;;;;;;8.94;83.17;100926.97;5158977;27;20069;-65
2023/12/19 08:52:56;;;;;;;20.48;11.98;;;;;;;8.98;82.46;100923.13;5159113;27;20054;-66
2023/12/19 08:55:22;;;;;;;17.25;11.02;;;;;;;8.90;82.63;100918.44;5159808;27;20039;-66
2023/12/19 08:57:49;;;;;;;15.45;10.18;;;;;;;8.87;82.07;100923.13;5160396;27;20034;-64
2023/12/19 09:00:17;;;;;;;16.25;10.00;;;;;;;8.69;84.12;100908.75;5159840;27;20053;-66
2023/12/19 09:02:43;;;;;;;19.25;10.35;;;;;;;8.81;83.66;100911.25;5159023;27;20072;-64
2023/12/19 09:05:13;;;;;;;15.02;9.73;;;;;;;8.76;84.02;100894.09;5158747;27;20328;-66
2023/12/19 09:07:39;;;;;;;14.50;8.95;;;;;;;8.95;84.04;100895.13;5158738;27;20042;-64
2023/12/19 09:10:06;;;;;;;13.75;9.15;;;;;;;9.07;83.57;100887.19;5159773;27;20349;-65
2023/12/19 09:12:35;;;;;;;15.88;9.70;;;;;;;9.12;82.79;100882.38;5159648;27;20321;-66
2023/12/19 09:15:02;;;;;;;13.88;9.20;;;;;;;9.29;82.50;100881.81;5159311;27;20528;-64
2023/12/19 09:17:27;;;;;;;17.00;8.95;;;;;;;9.37;82.58;100874.13;5158976;27;20041;-66
2023/12/19 09:19:55;;;;;;;13.05;8.50;;;;;;;9.43;81.61;100870.97;5158986;27;20035;-66
2023/12/19 09:22:20;;;;;;;15.50;9.32;;;;;;;9.50;81.79;100872.16;5158644;27;20035;-63
2023/12/19 09:24:45;;;;;;;20.08;9.75;;;;;;;9.57;82.97;100864.53;5159411;27;20041;-65
2023/12/19 09:27:11;;;;;;;13.07;7.88;;;;;;;9.63;81.62;100860.53;5158856;27;20035;-64
2023/12/19 09:29:36;;;;;;;13.27;8.45;;;;;;;9.63;81.86;100856.09;5158488;27;20031;-64
2023/12/19 09:32:05;;;;;;;13.70;7.93;;;;;;;9.67;82.59;100849.59;5158307;27;20030;-66
2023/12/19 09:34:30;;;;;;;19.30;11.00;;;;;;;9.70;82.55;100853.78;5158279;27;20031;-64
2023/12/19 09:36:56;;;;;;;25.00;13.15;;;;;;;9.72;82.86;100847.38;5158285;27;20042;-66
2023/12/19 09:39:23;;;;;;;13.23;9.80;;;;;;;9.74;83.96;100845.44;5158697;27;20031;-64
2023/12/19 09:41:49;;;;;;;13.98;7.47;;;;;;;9.73;83.42;100846.41;5158985;27;20034;-64
2023/12/19 09:44:14;;;;;;;11.10;6.78;;;;;;;9.75;83.30;100843.66;5157826;27;20239;-66
2023/12/19 09:46:41;;;;;;;15.60;8.40;;;;;;;9.74;85.92;100831.38;5158538;27;20308;-65
2023/12/19 09:49:10;;;;;;;12.88;8.68;;;;;;;9.76;86.14;100834.75;5158171;27;20278;-64
2023/12/19 09:51:42;;;;;;;12.23;7.18;;;;;;;9.68;87.68;100837.19;5158426;27;20038;-63
2023/12/19 09:54:07;;;;;;;11.30;6.65;;;;;;;9.62;88.66;100825.34;5158046;27;20041;-64
2023/12/19 09:56:34;;;;;;;12.23;7.15;;;;;;;9.41;88.84;100816.56;5159190;27;20035;-64
2023/12/19 09:59:02;;;;;;;12.23;7.93;;;;;;;9.47;89.89;100816.03;5159046;27;20460;-64
2023/12/19 10:01:28;;;;;;;9.38;6.75;;;;;;;9.48;90.62;100799.22;5157804;27;20054;-64
2023/12/19 10:03:55;;;;;;;11.13;6.95;;;;;;;9.40;90.18;100801.66;5157800;27;20397;-64
2023/12/19 10:06:24;;;;;;;11.57;6.93;;;;;;;9.52;90.21;100796.19;5158243;27;20074;-66
2023/12/19 10:08:52;;;;;;;9.35;6.60;;;;;;;9.62;89.80;100798.88;5158020;27;20057;-66
2023/12/19 10:11:18;;;;;;;9.30;6.30;;;;;;;9.74;88.95;100799.66;5158886;27;20090;-66
2023/12/19 10:13:48;;;;;;;12.00;6.63;;;;;;;9.82;89.11;100790.09;5158956;27;20109;-66
2023/12/19 10:16:17;;;;;;;30.65;14.70;;;;;;;9.79;88.74;100787.72;5159124;27;20038;-66
2023/12/19 10:18:44;;;;;;;14.48;7.38;;;;;;;9.95;88.20;100778.44;5158358;27;20331;-65
2023/12/19 10:21:11;;;;;;;11.43;6.82;;;;;;;10.12;87.43;100778.66;5136270;27;20039;-65
2023/12/19 10:23:38;;;;;;;11.57;6.70;;;;;;;10.23;87.80;100775.09;5138199;27;20072;-65
2023/12/19 10:26:04;;;;;;;9.55;6.68;;;;;;;10.30;86.67;100767.47;5138543;27;20043;-61
2023/12/19 10:28:32;;;;;;;13.68;6.68;;;;;;;10.33;87.05;100764.53;5138544;27;20034;-62
2023/12/19 10:31:12;;;;;;;10.40;5.93;;;;;;;10.46;86.84;100755.41;5138303;27;20252;-64
2023/12/19 10:33:56;;;;;;;10.20;5.78;;;;;;;10.55;84.80;100754.59;5137884;27;20050;-61
2023/12/19 10:36:25;;;;;;;11.32;6.15;;;;;;;10.61;85.01;100747.91;5137834;27;20046;-63
2023/12/19 10:38:51;;;;;;;17.42;9.73;;;;;;;10.70;84.39;100744.41;5138281;27;20071;-62
2023/12/19 10:41:30;;;;;;;10.77;7.35;;;;;;;10.78;85.57;100736.63;5139980;27;20039;-63
2023/12/19 10:43:58;;;;;;;14.80;6.72;;;;;;;10.78;86.26;100731.31;5141166;27;20039;-63
2023/12/19 10:46:26;;;;;;;8.80;5.70;;;;;;;10.76;85.34;100727.97;5141358;27;20119;-62
2023/12/19 10:49:03;;;;;;;13.52;6.60;;;;;;;10.85;84.23;100721.00;5141106;27;20098;-64
2023/12/19 10:51:41;;;;;;;9.27;6.47;;;;;;;10.93;85.18;100715.00;5141218;27;20339;-62
2023/12/19 10:54:10;;;;;;;20.13;8.02;;;;;;;11.03;84.75;100713.19;5140579;27;20037;-62
2023/12/19 10:56:46;;;;;;;12.68;6.47;;;;;;;11.08;85.95;100714.44;5141335;27;20356;-64
2023/12/19 10:59:20;;;;;;;9.20;5.85;;;;;;;11.09;83.60;100705.50;5141282;27;20377;-63
2023/12/19 11:01:49;;;;;;;8.65;6.25;;;;;;;11.10;85.10;100704.50;5140771;27;20051;-61
2023/12/19 11:04:23;;;;;;;9.80;6.15;;;;;;;11.16;85.96;100705.75;5140923;27;20045;-62
2023/12/19 11:06:56;;;;;;;11.07;5.90;;;;;;;11.22;85.97;100701.69;5141750;27;20266;-61
2023/12/19 11:09:28;;;;;;;9.50;5.63;;;;;;;11.18;85.51;100701.16;5141401;27;20333;-61
2023/12/19 11:11:54;;;;;;;9.80;6.28;;;;;;;11.22;84.19;100694.59;5140561;27;20038;-64
2023/12/19 11:14:24;;;;;;;13.40;6.22;;;;;;;11.14;84.20;100692.66;5140595;27;20224;-66